AYMH/HGU METAR and TAF weather

Enter ICAO airport designator
Station Type Date Time Source
AYMH METAR 2020/07/04 02:00 UTC NOAA

AYMH 040200Z 27010KT 9999 HZ SCT070 22/16 Q1019=


Station Type Date Time Source
AYMH Decoded METAR 2020/07/04 02:00 UTC NOAA

Station name not available
Jul 03, 2020 - 10:00 PM EDT / 2020.07.04 0200 UTC
Wind: from the W (270 degrees) at 12 MPH (10 KT):0
Visibility: greater than 7 mile(s):0
Sky conditions: partly cloudy
Weather: haze
Temperature: 71 F (22 C)
Dew Point: 60 F (16 C)
Relative Humidity: 68%
Pressure (altimeter): 30.09 in. Hg (1019 hPa)
ob: AYMH 040200Z 27010KT 9999 HZ SCT070 22/16 Q1019=
cycle: 2

Station Type Date Time Source
AYMH TAF UTC NOAA

Error!

Example: see airport list